createdAt,value
2022-12-18T00:02:12.613Z,48.67
2022-12-18T00:04:39.313Z,46.63
2022-12-18T00:07:05.749Z,49.17
2022-12-18T00:09:32.188Z,45.33
2022-12-18T00:14:44.287Z,46.22
2022-12-18T00:17:10.661Z,44.03
2022-12-18T00:19:37.153Z,64.78
2022-12-18T00:22:03.773Z,45.83
2022-12-18T00:24:30.272Z,49.60
2022-12-18T00:26:56.649Z,44.80
2022-12-18T00:29:23.042Z,60.05
2022-12-18T00:31:49.617Z,63.45
2022-12-18T00:34:16.188Z,54.73
2022-12-18T00:36:42.733Z,62.63
2022-12-18T00:39:10.879Z,71.15
2022-12-18T00:41:55.791Z,64.15
2022-12-18T00:44:22.355Z,66.25
2022-12-18T00:46:49.226Z,45.58
2022-12-18T00:49:20.626Z,56.42
2022-12-18T00:51:47.345Z,49.47
2022-12-18T00:54:14.316Z,64.75
2022-12-18T00:56:48.189Z,53.63
2022-12-18T00:59:15.572Z,76.43
2022-12-18T01:01:42.179Z,51.80
2022-12-18T01:04:09.136Z,41.53
2022-12-18T01:06:35.632Z,53.28
2022-12-18T01:09:03.107Z,52.05
2022-12-18T01:11:29.554Z,59.42
2022-12-18T01:13:56.291Z,42.25
2022-12-18T01:16:23.231Z,51.10
2022-12-18T01:18:53.424Z,63.92
2022-12-18T01:21:19.986Z,57.97
2022-12-18T01:23:46.964Z,60.40
2022-12-18T01:26:16.525Z,66.93
2022-12-18T01:28:44.776Z,60.75
2022-12-18T01:33:41.481Z,49.65
2022-12-18T01:36:08.698Z,59.17
2022-12-18T01:38:35.107Z,61.30
2022-12-18T01:41:02.761Z,63.33
2022-12-18T01:46:08.601Z,68.72
2022-12-18T01:48:35.035Z,62.25
2022-12-18T01:51:02.254Z,47.28
2022-12-18T01:53:29.096Z,53.88
2022-12-18T01:56:00.089Z,50.58
2022-12-18T01:58:57.173Z,50.95
2022-12-18T02:03:51.168Z,45.30
2022-12-18T02:06:26.933Z,53.90
2022-12-18T02:09:03.068Z,55.58
2022-12-18T02:11:56.617Z,47.88
2022-12-18T02:14:31.523Z,43.03
2022-12-18T02:17:06.469Z,45.38
2022-12-18T02:19:50.945Z,52.35
2022-12-18T02:22:35.727Z,46.42
2022-12-18T02:25:21.696Z,52.80
2022-12-18T02:27:51.507Z,45.97
2022-12-18T02:30:18.720Z,45.28
2022-12-18T02:32:50.468Z,42.88
2022-12-18T02:35:23.072Z,50.33
2022-12-18T02:37:49.692Z,46.05
2022-12-18T02:40:18.195Z,49.13
2022-12-18T02:42:44.713Z,48.10
2022-12-18T02:45:11.545Z,45.65
2022-12-18T02:47:41.569Z,44.38
2022-12-18T02:50:44.755Z,44.90
2022-12-18T02:53:19.986Z,41.97
2022-12-18T02:55:49.305Z,43.17
2022-12-18T02:58:21.322Z,41.20
2022-12-18T03:01:08.328Z,45.65
2022-12-18T03:03:43.243Z,61.53
2022-12-18T03:06:41.209Z,45.97
2022-12-18T03:09:11.867Z,48.50
2022-12-18T03:12:01.346Z,47.35
2022-12-18T03:14:32.098Z,41.88
2022-12-18T03:17:02.873Z,41.55
2022-12-18T03:19:32.388Z,62.15
2022-12-18T03:22:02.712Z,51.83
2022-12-18T03:24:32.285Z,42.30
2022-12-18T03:27:03.385Z,41.80
2022-12-18T03:29:54.336Z,43.63
2022-12-18T03:32:34.141Z,46.05
2022-12-18T03:35:04.996Z,47.92
2022-12-18T03:37:31.530Z,42.58
2022-12-18T03:39:58.118Z,46.25
2022-12-18T03:42:50.882Z,47.57
2022-12-18T03:45:25.131Z,44.97
2022-12-18T03:47:59.252Z,40.38
2022-12-18T03:50:33.182Z,50.25
2022-12-18T03:53:11.054Z,42.97
2022-12-18T03:55:38.229Z,42.70
2022-12-18T03:58:07.756Z,43.72
2022-12-18T04:00:35.101Z,45.03
2022-12-18T04:03:04.477Z,38.15
2022-12-18T04:05:32.924Z,43.42
2022-12-18T04:07:59.909Z,35.00
2022-12-18T04:10:26.423Z,38.38
2022-12-18T04:12:57.090Z,35.70
2022-12-18T04:15:23.542Z,39.55
2022-12-18T04:17:50.872Z,38.05
2022-12-18T04:20:18.360Z,36.38
2022-12-18T04:22:44.778Z,33.65
2022-12-18T04:25:11.176Z,39.03
2022-12-18T04:27:37.689Z,38.90
2022-12-18T04:30:04.727Z,28.67
2022-12-18T04:32:31.934Z,42.45
2022-12-18T04:34:58.329Z,35.30
2022-12-18T04:37:24.770Z,37.80
2022-12-18T04:39:51.647Z,34.40
2022-12-18T04:42:20.416Z,43.70
2022-12-18T04:44:46.831Z,46.70
2022-12-18T04:47:13.261Z,35.63
2022-12-18T04:49:39.739Z,41.70
2022-12-18T04:52:06.116Z,48.80
2022-12-18T04:54:32.529Z,42.08
2022-12-18T04:56:58.944Z,40.80
2022-12-18T04:59:25.425Z,41.10
2022-12-18T05:01:51.922Z,37.60
2022-12-18T05:04:18.455Z,40.55
2022-12-18T05:06:46.313Z,36.30
2022-12-18T05:09:12.854Z,34.95
2022-12-18T05:11:39.270Z,38.13
2022-12-18T05:14:05.748Z,32.83
2022-12-18T05:16:32.526Z,34.83
2022-12-18T05:18:59.009Z,31.23
2022-12-18T05:21:25.420Z,38.55
2022-12-18T05:23:51.885Z,29.17
2022-12-18T05:26:19.479Z,32.22
2022-12-18T05:31:12.383Z,34.97
2022-12-18T05:33:39.389Z,42.17
2022-12-18T05:36:08.353Z,48.30
2022-12-18T05:38:37.680Z,49.35
2022-12-18T05:41:04.994Z,50.88
2022-12-18T05:43:31.984Z,51.42
2022-12-18T05:45:58.560Z,46.70
2022-12-18T05:48:24.998Z,47.65
2022-12-18T05:50:52.196Z,42.90
2022-12-18T05:53:20.873Z,48.55
2022-12-18T05:55:48.180Z,43.70
2022-12-18T05:58:15.485Z,63.75
2022-12-18T06:00:44.045Z,52.28
2022-12-18T06:03:11.761Z,45.47
2022-12-18T06:05:43.641Z,50.97
2022-12-18T06:08:11.516Z,49.50
2022-12-18T06:10:38.432Z,52.83
2022-12-18T06:13:05.630Z,55.53
2022-12-18T06:15:32.138Z,51.85
2022-12-18T06:17:58.888Z,48.10
2022-12-18T06:20:30.439Z,46.42
2022-12-18T06:22:59.638Z,43.75
2022-12-18T06:25:26.071Z,45.33
2022-12-18T06:27:52.533Z,44.42
2022-12-18T06:30:18.965Z,47.78
2022-12-18T06:32:45.622Z,48.50
2022-12-18T06:35:15.148Z,42.08
2022-12-18T06:37:41.707Z,50.03
2022-12-18T06:40:08.772Z,49.17
2022-12-18T06:42:35.263Z,48.67
2022-12-18T06:45:01.708Z,101.75
2022-12-18T06:47:28.086Z,74.60
2022-12-18T06:49:54.486Z,47.53
2022-12-18T06:52:20.908Z,73.32
2022-12-18T06:54:47.339Z,61.13
2022-12-18T06:57:13.703Z,64.85
2022-12-18T06:59:40.186Z,63.92
2022-12-18T07:02:06.762Z,48.33
2022-12-18T07:04:33.267Z,50.40
2022-12-18T07:06:59.741Z,47.92
2022-12-18T07:09:26.507Z,85.85
2022-12-18T07:11:53.376Z,50.88
2022-12-18T07:14:19.869Z,69.00
2022-12-18T07:16:46.407Z,57.25
2022-12-18T07:19:12.914Z,64.70
2022-12-18T07:21:39.609Z,61.38
2022-12-18T07:24:06.819Z,58.22
2022-12-18T07:26:33.378Z,47.78
2022-12-18T07:28:59.876Z,42.77
2022-12-18T07:31:27.914Z,63.27
2022-12-18T07:33:55.051Z,64.00
2022-12-18T07:36:24.233Z,37.50
2022-12-18T07:38:52.530Z,48.92
2022-12-18T07:41:19.780Z,125.15
2022-12-18T07:43:46.642Z,98.60
2022-12-18T07:46:16.764Z,82.32
2022-12-18T07:48:45.394Z,33.55
2022-12-18T07:51:16.449Z,28.10
2022-12-18T07:53:43.709Z,45.55
2022-12-18T07:56:29.439Z,25.58
2022-12-18T07:58:58.842Z,26.83
2022-12-18T08:01:26.335Z,35.38
2022-12-18T08:06:19.634Z,28.60
2022-12-18T08:08:49.310Z,30.38
2022-12-18T08:11:16.650Z,24.42
2022-12-18T08:13:43.345Z,27.75
2022-12-18T08:16:10.030Z,27.23
2022-12-18T08:18:39.661Z,24.03
2022-12-18T08:21:17.770Z,29.92
2022-12-18T08:23:44.432Z,24.60
2022-12-18T08:26:14.420Z,25.42
2022-12-18T08:28:41.373Z,23.65
2022-12-18T08:31:08.946Z,24.13
2022-12-18T08:33:38.143Z,22.75
2022-12-18T08:36:05.556Z,22.10
2022-12-18T08:38:35.101Z,20.65
2022-12-18T08:41:05.426Z,22.30
2022-12-18T08:43:50.588Z,28.58
2022-12-18T08:46:17.989Z,21.85
2022-12-18T08:48:44.655Z,23.70
2022-12-18T08:51:11.391Z,23.37
2022-12-18T08:56:06.484Z,24.48
2022-12-18T08:58:33.016Z,25.10
2022-12-18T09:01:04.145Z,26.30
2022-12-18T09:03:30.960Z,27.90
2022-12-18T09:05:57.563Z,27.95
2022-12-18T09:08:24.220Z,27.55
2022-12-18T09:10:51.556Z,27.80
2022-12-18T09:13:19.307Z,25.92
2022-12-18T09:15:48.493Z,20.10
2022-12-18T09:18:16.743Z,27.42
2022-12-18T09:20:43.348Z,27.63
2022-12-18T09:23:10.622Z,27.30
2022-12-18T09:25:38.554Z,24.27
2022-12-18T09:28:08.208Z,24.17
2022-12-18T09:30:35.150Z,27.30
2022-12-18T09:33:02.522Z,27.48
2022-12-18T09:35:29.099Z,29.70
2022-12-18T09:37:55.830Z,20.52
2022-12-18T09:40:26.226Z,23.48
2022-12-18T09:42:56.853Z,28.13
2022-12-18T09:45:23.864Z,26.52
2022-12-18T09:47:53.302Z,24.20
2022-12-18T09:50:35.157Z,21.05
2022-12-18T09:53:12.043Z,23.83
2022-12-18T09:55:42.189Z,24.38
2022-12-18T09:58:24.376Z,24.77
2022-12-18T10:00:53.433Z,39.25
2022-12-18T10:03:19.919Z,31.67
2022-12-18T10:06:01.393Z,28.20
2022-12-18T10:08:30.537Z,25.05
2022-12-18T10:11:13.126Z,30.00
2022-12-18T10:13:53.538Z,24.60
2022-12-18T10:16:52.120Z,27.30
2022-12-18T10:19:37.523Z,27.08
2022-12-18T10:22:45.531Z,27.85
2022-12-18T10:25:23.760Z,24.30
2022-12-18T10:27:56.241Z,26.88
2022-12-18T10:30:24.666Z,29.50
2022-12-18T10:32:51.378Z,28.63
2022-12-18T10:35:21.745Z,25.60
2022-12-18T10:38:03.630Z,26.88
2022-12-18T10:40:30.373Z,28.73
2022-12-18T10:43:14.143Z,29.90
2022-12-18T10:45:40.791Z,26.08
2022-12-18T10:48:20.230Z,26.08
2022-12-18T10:53:38.381Z,25.27
2022-12-18T10:56:07.191Z,25.05
2022-12-18T10:58:37.065Z,23.58
2022-12-18T11:01:23.596Z,28.70
2022-12-18T11:04:01.997Z,25.73
2022-12-18T11:06:29.945Z,28.08
2022-12-18T11:09:00.713Z,25.77
2022-12-18T11:11:27.936Z,23.15
2022-12-18T11:14:07.443Z,22.98
2022-12-18T11:16:37.262Z,23.50
2022-12-18T11:19:25.298Z,23.98
2022-12-18T11:21:52.005Z,20.42
2022-12-18T11:24:28.449Z,23.20
2022-12-18T11:26:59.701Z,23.03
2022-12-18T11:29:33.729Z,21.25
2022-12-18T11:32:25.104Z,24.40
2022-12-18T11:34:59.313Z,23.48
2022-12-18T11:37:26.611Z,23.83
2022-12-18T11:39:58.789Z,28.23
2022-12-18T11:42:49.308Z,22.30
2022-12-18T11:45:22.869Z,29.48
2022-12-18T11:47:58.761Z,24.05
2022-12-18T11:50:30.592Z,18.58
2022-12-18T11:53:01.542Z,26.27
2022-12-18T11:55:48.849Z,23.00
2022-12-18T11:58:31.738Z,23.75
2022-12-18T12:01:15.417Z,30.90
2022-12-18T12:03:57.142Z,27.98
2022-12-18T12:06:36.290Z,23.17
2022-12-18T12:09:08.462Z,21.10
2022-12-18T12:12:10.188Z,23.60
2022-12-18T12:15:07.702Z,26.58
2022-12-18T12:17:41.851Z,22.92
2022-12-18T12:20:43.169Z,27.13
2022-12-18T12:23:26.064Z,25.42
2022-12-18T12:26:00.396Z,22.50
2022-12-18T12:28:44.506Z,19.38
2022-12-18T12:31:44.158Z,22.23
2022-12-18T12:34:35.449Z,19.60
2022-12-18T12:37:12.522Z,24.98
2022-12-18T12:39:43.325Z,44.35
2022-12-18T12:42:50.509Z,21.67
2022-12-18T12:45:29.317Z,24.08
2022-12-18T12:47:58.631Z,24.10
2022-12-18T12:50:25.852Z,25.75
2022-12-18T12:52:56.268Z,31.77
2022-12-18T12:55:28.636Z,31.02
2022-12-18T12:57:54.958Z,26.25
2022-12-18T13:00:21.829Z,25.23
2022-12-18T13:03:02.646Z,23.13
2022-12-18T13:05:50.397Z,23.95
2022-12-18T13:08:26.560Z,27.13
2022-12-18T13:11:15.381Z,23.98
2022-12-18T13:13:54.667Z,24.63
2022-12-18T13:16:25.822Z,19.35
2022-12-18T13:18:55.312Z,23.30
2022-12-18T13:21:28.221Z,27.58
2022-12-18T13:23:55.172Z,30.08
2022-12-18T13:26:28.904Z,24.98
2022-12-18T13:28:57.515Z,22.02
2022-12-18T13:34:31.827Z,23.80
2022-12-18T13:37:33.783Z,21.77
2022-12-18T13:40:00.702Z,24.33
2022-12-18T13:42:48.817Z,30.95
2022-12-18T13:46:01.033Z,25.70
2022-12-18T13:48:30.300Z,28.38
2022-12-18T13:51:11.499Z,36.47
2022-12-18T13:53:40.377Z,22.48
2022-12-18T13:56:07.299Z,33.63
2022-12-18T13:58:34.031Z,34.03
2022-12-18T14:01:02.961Z,27.08
2022-12-18T14:03:31.334Z,32.75
2022-12-18T14:06:06.880Z,28.20
2022-12-18T14:08:38.499Z,31.40
2022-12-18T14:11:07.522Z,27.88
2022-12-18T14:13:42.083Z,31.95
2022-12-18T14:16:15.157Z,35.38
2022-12-18T14:18:51.036Z,32.70
2022-12-18T14:21:27.108Z,26.08
2022-12-18T14:24:14.525Z,29.52
2022-12-18T14:26:41.588Z,26.90
2022-12-18T14:29:30.793Z,24.33
2022-12-18T14:32:20.708Z,31.08
2022-12-18T14:34:51.159Z,28.80
2022-12-18T14:37:22.464Z,30.33
2022-12-18T14:39:55.982Z,33.17
2022-12-18T14:42:22.440Z,34.72
2022-12-18T14:45:12.768Z,36.75
2022-12-18T14:47:35.300Z,25.15
2022-12-18T14:50:01.928Z,26.75
2022-12-18T14:52:32.456Z,26.77
2022-12-18T14:54:58.951Z,28.17
2022-12-18T14:57:29.375Z,29.02
2022-12-18T15:00:23.789Z,26.38
2022-12-18T15:02:57.920Z,30.33
2022-12-18T15:05:29.945Z,33.13
2022-12-18T15:07:58.741Z,30.45
2022-12-18T15:10:31.289Z,33.78
2022-12-18T15:12:57.674Z,31.42
2022-12-18T15:15:39.319Z,26.88
2022-12-18T15:18:08.675Z,26.15
2022-12-18T15:20:45.062Z,38.58
2022-12-18T15:23:18.843Z,33.88
2022-12-18T15:25:46.341Z,31.38
2022-12-18T15:28:20.891Z,30.30
2022-12-18T15:31:00.665Z,33.35
2022-12-18T15:33:32.999Z,30.85
2022-12-18T15:36:01.704Z,36.25
2022-12-18T15:38:28.374Z,32.65
2022-12-18T15:40:55.267Z,31.57
2022-12-18T15:43:36.073Z,32.78
2022-12-18T15:46:04.838Z,33.15
2022-12-18T15:48:33.990Z,34.65
2022-12-18T15:51:01.093Z,33.22
2022-12-18T15:53:31.655Z,31.85
2022-12-18T15:56:17.909Z,31.95
2022-12-18T15:58:44.981Z,41.15
2022-12-18T16:01:11.928Z,39.35
2022-12-18T16:03:39.038Z,37.42
2022-12-18T16:06:05.898Z,34.92
2022-12-18T16:08:32.356Z,37.73
2022-12-18T16:10:59.224Z,35.72
2022-12-18T16:13:25.727Z,43.10
2022-12-18T16:15:52.383Z,34.95
2022-12-18T16:18:18.929Z,43.55
2022-12-18T16:20:45.343Z,45.22
2022-12-18T16:23:11.760Z,39.60
2022-12-18T16:25:38.199Z,35.13
2022-12-18T16:28:04.659Z,37.47
2022-12-18T16:30:33.058Z,39.42
2022-12-18T16:33:05.012Z,41.45
2022-12-18T16:35:31.490Z,48.47
2022-12-18T16:37:57.928Z,39.10
2022-12-18T16:40:24.401Z,47.08
2022-12-18T16:42:50.963Z,45.50
2022-12-18T16:45:18.542Z,51.37
2022-12-18T16:47:46.335Z,42.22
2022-12-18T16:50:13.077Z,40.78
2022-12-18T16:52:39.966Z,39.20
2022-12-18T16:55:06.499Z,35.97
2022-12-18T16:57:33.160Z,44.38
2022-12-18T17:00:04.727Z,48.10
2022-12-18T17:02:32.093Z,44.60
2022-12-18T17:04:59.026Z,51.40
2022-12-18T17:07:26.886Z,44.65
2022-12-18T17:09:54.184Z,45.80
2022-12-18T17:12:21.348Z,45.10
2022-12-18T17:14:47.850Z,51.97
2022-12-18T17:17:23.859Z,49.47
2022-12-18T17:19:52.241Z,43.53
2022-12-18T17:22:19.664Z,39.70
2022-12-18T17:24:47.356Z,47.90
2022-12-18T17:27:14.425Z,47.10
2022-12-18T17:29:47.181Z,42.28
2022-12-18T17:32:15.424Z,44.28
2022-12-18T17:34:41.891Z,43.00
2022-12-18T17:37:08.592Z,39.78
2022-12-18T17:39:35.038Z,37.72
2022-12-18T17:42:01.492Z,42.03
2022-12-18T17:44:28.059Z,39.38
2022-12-18T17:46:54.521Z,36.47
2022-12-18T17:49:21.542Z,41.17
2022-12-18T17:51:48.461Z,35.90
2022-12-18T17:54:14.957Z,41.97
2022-12-18T17:56:41.608Z,40.97
2022-12-18T17:59:08.055Z,39.75
2022-12-18T18:01:37.297Z,39.80
2022-12-18T18:04:07.528Z,41.63
2022-12-18T18:06:34.468Z,37.93
2022-12-18T18:09:04.335Z,39.10
2022-12-18T18:11:49.268Z,38.00
2022-12-18T18:14:20.017Z,41.55
2022-12-18T18:16:49.258Z,43.40
2022-12-18T18:19:18.330Z,40.88
2022-12-18T18:21:47.086Z,44.97
2022-12-18T18:24:16.269Z,39.75
2022-12-18T18:26:43.063Z,54.97
2022-12-18T18:29:20.822Z,49.17
2022-12-18T18:31:47.868Z,40.42
2022-12-18T18:34:16.556Z,37.58
2022-12-18T18:36:43.231Z,39.63
2022-12-18T18:39:10.465Z,40.57
2022-12-18T18:41:37.000Z,34.15
2022-12-18T18:44:04.169Z,36.10
2022-12-18T18:46:30.572Z,41.75
2022-12-18T18:48:57.031Z,36.60
2022-12-18T18:51:23.894Z,36.83
2022-12-18T18:53:52.508Z,34.33
2022-12-18T18:56:45.529Z,36.70
2022-12-18T18:59:13.733Z,32.88
2022-12-18T19:01:40.339Z,37.95
2022-12-18T19:04:06.858Z,39.25
2022-12-18T19:06:33.565Z,36.90
2022-12-18T19:09:02.360Z,31.25
2022-12-18T19:11:48.251Z,36.90
2022-12-18T19:14:15.695Z,34.50
2022-12-18T19:16:43.641Z,38.40
2022-12-18T19:19:10.322Z,39.97
2022-12-18T19:21:38.153Z,33.05
2022-12-18T19:24:05.902Z,38.20
2022-12-18T19:26:32.329Z,30.88
2022-12-18T19:29:07.143Z,29.98
2022-12-18T19:31:36.352Z,38.35
2022-12-18T19:34:04.919Z,37.60
2022-12-18T19:36:32.844Z,35.50
2022-12-18T19:39:01.065Z,31.83
2022-12-18T19:41:31.158Z,38.60
2022-12-18T19:43:58.383Z,35.70
2022-12-18T19:46:25.069Z,35.75
2022-12-18T19:48:51.799Z,30.20
2022-12-18T19:51:26.125Z,29.40
2022-12-18T19:53:58.493Z,31.30
2022-12-18T19:56:27.829Z,31.25
2022-12-18T19:58:54.978Z,30.60
2022-12-18T20:01:23.644Z,30.98
2022-12-18T20:03:52.200Z,28.30
2022-12-18T20:06:28.538Z,30.35
2022-12-18T20:09:00.347Z,26.60
2022-12-18T20:11:27.584Z,29.55
2022-12-18T20:13:53.944Z,39.13
2022-12-18T20:16:20.647Z,27.67
2022-12-18T20:18:49.168Z,30.33
2022-12-18T20:21:15.956Z,31.70
2022-12-18T20:23:42.766Z,22.83
2022-12-18T20:26:09.698Z,27.02
2022-12-18T20:28:36.065Z,30.70
2022-12-18T20:31:08.137Z,27.55
2022-12-18T20:33:37.165Z,29.85
2022-12-18T20:36:06.233Z,26.83
2022-12-18T20:38:33.994Z,44.70
2022-12-18T20:41:05.043Z,32.03
2022-12-18T20:43:31.519Z,33.60
2022-12-18T20:46:07.790Z,29.52
2022-12-18T20:48:34.757Z,30.67
2022-12-18T20:51:07.350Z,29.35
2022-12-18T20:53:34.701Z,30.00
2022-12-18T20:56:02.344Z,28.88
2022-12-18T20:58:28.793Z,31.15
2022-12-18T21:01:13.276Z,33.08
2022-12-18T21:03:40.905Z,37.17
2022-12-18T21:08:34.157Z,30.27
2022-12-18T21:11:38.509Z,31.42
2022-12-18T21:14:19.784Z,29.88
2022-12-18T21:16:46.680Z,32.00
2022-12-18T21:19:16.196Z,30.88
2022-12-18T21:21:43.665Z,37.17
2022-12-18T21:24:11.481Z,30.58
2022-12-18T21:26:44.894Z,32.72
2022-12-18T21:29:15.417Z,31.45
2022-12-18T21:31:42.810Z,32.58
2022-12-18T21:34:15.402Z,32.45
2022-12-18T21:36:41.779Z,37.78
2022-12-18T21:39:08.362Z,38.10
2022-12-18T21:41:53.385Z,34.92
2022-12-18T21:44:22.115Z,34.55
2022-12-18T21:46:55.013Z,38.10
2022-12-18T21:49:25.173Z,38.45
2022-12-18T21:51:54.451Z,31.00
2022-12-18T21:54:21.268Z,35.33
2022-12-18T21:56:51.020Z,30.40
2022-12-18T21:59:22.951Z,31.15
2022-12-18T22:01:50.748Z,34.42
2022-12-18T22:04:18.718Z,35.05
2022-12-18T22:06:46.008Z,38.45
2022-12-18T22:09:17.025Z,29.95
2022-12-18T22:11:43.909Z,33.20
2022-12-18T22:14:11.045Z,35.13
2022-12-18T22:16:37.550Z,34.28
2022-12-18T22:19:04.879Z,33.47
2022-12-18T22:21:37.162Z,34.05
2022-12-18T22:24:06.734Z,29.20
2022-12-18T22:26:39.815Z,32.20
2022-12-18T22:29:25.689Z,27.90
2022-12-18T22:31:52.181Z,33.88
2022-12-18T22:34:22.795Z,31.80
2022-12-18T22:36:49.536Z,36.00
2022-12-18T22:39:24.424Z,32.25
2022-12-18T22:41:51.984Z,35.15
2022-12-18T22:44:18.770Z,34.00
2022-12-18T22:47:05.532Z,30.90
2022-12-18T22:49:33.908Z,31.17
2022-12-18T22:52:01.817Z,33.67
2022-12-18T22:54:28.202Z,33.50
2022-12-18T22:56:55.439Z,32.35
2022-12-18T22:59:23.080Z,36.88
2022-12-18T23:01:51.452Z,34.75
2022-12-18T23:04:30.022Z,30.45
2022-12-18T23:07:04.478Z,31.40
2022-12-18T23:09:31.002Z,30.33
2022-12-18T23:11:57.752Z,37.95
2022-12-18T23:14:24.246Z,32.90
2022-12-18T23:16:51.479Z,35.05
2022-12-18T23:19:19.764Z,35.10
2022-12-18T23:21:46.166Z,31.20
2022-12-18T23:24:12.578Z,33.35
2022-12-18T23:26:39.003Z,34.15
2022-12-18T23:29:05.924Z,37.75
2022-12-18T23:31:38.415Z,33.17
2022-12-18T23:34:06.820Z,33.67
2022-12-18T23:36:35.877Z,36.50
2022-12-18T23:39:15.440Z,34.92
2022-12-18T23:41:55.838Z,37.95
2022-12-18T23:44:22.327Z,39.08
2022-12-18T23:46:48.735Z,39.00
2022-12-18T23:49:15.190Z,38.70
2022-12-18T23:51:41.570Z,37.33
2022-12-18T23:54:09.246Z,43.47
2022-12-18T23:56:35.763Z,35.45
2022-12-18T23:59:02.218Z,42.17
